Some changes in Croatian GAFOR shall be introduced from June 8th 2017. Please find more information here.

Od 8. lipnja  2017. uvest će se niz promjena u GAFOR-u.  Više informacija možete naći ovdje.

METAR

METAR LDZA 271430Z 18006KT 070V240 9999 -RA FEW030 17/13 Q1009 TEMPO RA =
METAR LDSP 271430Z 11011KT 9999 BKN060 19/09 Q1013 NOSIG=
METAR LDDU 271430Z 14020KT CAVOK 20/03 Q1015 NOSIG =
METAR LDZD 271430Z 12009KT 080V150 9999 FEW030 17/14 Q1011 NOSIG =
METAR LDPL 271430Z 13012KT 090V160 9999 SCT004 16/14 Q1009 TEMPO 14015G25KT=
METAR LDOS 271430Z 19010KT CAVOK 24/08 Q1010=
METAR LDRI 271430Z 12012KT 9999 FEW007 BKN035 15/13 Q1009=

TAF

TAF AMD LDZA 271227Z 2712/2812 VRB02KT 9999 BKN040
                     TX20/2712Z TN14/2722Z
               TEMPO 2712/2718 20018KT SHRA FEW030TCU BKN040
        PROB40 TEMPO 2712/2718 02007KT
        PROB30 TEMPO 2713/2717 20018KT TSRA FEW030CB BKN040
        PROB40 TEMPO 2809/2812 23010KT RA BKN014 OVC030=
TAF LDSP 271125Z 2712/2812 11014KT 9999 SCT040
                 TX19/1812Z TN15/2721Z
           TEMPO 2712/2812 11010KT
    PROB40 TEMPO 2803/2812 4000 RA=
TAF LDDU 271125Z 2712/2812 12016KT 9999 FEW035
                 TX21/2712Z TN14/2806Z
           TEMPO 2712/2716 12015G25KT
           TEMPO 2721/2812 12018G28KT=
TAF LDZD 271125Z 2712/2812 14015KT 9999 FEW020 SCT045
                 TX16/2713Z TN13/2811Z
           TEMPO 2712/2718 14015G25KT
    PROB30 TEMPO 2712/2812 SHRA FEW020TCU BKN030
           TEMPO 2718/2812 14025G35KT=
TAF LDPL 271125Z 2712/2812 14014KT 9999 SCT004 BKN030
                 TX16/2713Z TN11/2811Z
           TEMPO 2712/2724 14014G24KT
           TEMPO 2712/2809 RA SCT004 BKN010
    PROB40 TEMPO 2712/2809 SHRA FEW025TCU BKN030
           BECMG 2802/2804 24010KT=
TAF LDOS 271125Z 2712/2812 19010KT 9999 FEW040
                 TX23/2713Z TN15/2803Z=
TAF LDRI 271125Z 2712/2812 15015KT 9999 FEW010 BKN030
                 TX16/2713Z TN11/2811Z
           TEMPO 2712/2803 15015G30KT
           TEMPO 2712/2812 RA
    PROB40 TEMPO 2712/2812 SHRA FEW020TCU BKN025
    PROB30 TEMPO 2715/2806 TSRA FEW020CB BKN025
           BECMG 2803/2805 24012KT=

SIGMET

LDZO SIGMET 8 VALID 271300/271700 LDZA-
LDZO ZAGREB FIR EMBD TS FCST WI N4531 E01317 - N4632 E01625 - N4615
E01851 - N4405 E01619 - N4402 E01510 - N4531 E01317 TOP FL350 STNR
WKN=

AIRMET

LDZO AIRMET 6 VALID 271400/271800 LDZA-
LDZO ZAGREB FIR MOD MTW FCST WI N4619 E01553 - N4503 E01837 - N4324
E01650 - N4526 E01346 - N4619 E01553 ABV FL030 STNR NC=

Ukoliko se brzina i smjer vjetra ne mogu odrediti zbog privremenog kvara sustava/indikatora,
informacija o vjetru u METAR izvješću bit će prikazana kao "/////KT".

 

         

      Politika MET podataka      

 

Disclaimer

 

In case of temporary system/sensor failure, wind speed and direction data will be represented as "/////KT" in METAR report.